Time;durP1;ratioP1;P1;durP2;ratioP2;P2;SDS_P1;SDS_P2;PMS_P1;PMS_P2;Temp;Humidity;BMP_temperature;BMP_pressure;BME280_temperature;BME280_humidity;BME280_pressure;Samples;Min_cycle;Max_cycle;Signal;HPM_P1;HPM_P2
2023/03/17 00:01:10;;;;;;;9.53;5.27;;;;;;;0.65;100.00;93652.16;5034727;28;20098;-61
2023/03/17 00:03:40;;;;;;;10.40;5.47;;;;;;;0.72;100.00;93649.56;5032079;28;20245;-63
2023/03/17 00:06:28;;;;;;;11.98;6.10;;;;;;;0.72;100.00;93644.16;5031251;28;20398;-62
2023/03/17 00:08:56;;;;;;;11.00;6.38;;;;;;;0.65;100.00;93651.38;5031334;28;20513;-61
2023/03/17 00:11:25;;;;;;;10.65;5.70;;;;;;;0.59;100.00;93648.19;5031929;28;20478;-61
2023/03/17 00:13:52;;;;;;;12.80;6.10;;;;;;;0.68;100.00;93645.25;5035978;28;20385;-62
2023/03/17 00:16:22;;;;;;;10.82;6.05;;;;;;;0.68;100.00;93640.63;5039828;28;20054;-62
2023/03/17 00:18:50;;;;;;;11.00;5.40;;;;;;;0.69;100.00;93630.63;5031212;28;20041;-61
2023/03/17 00:21:23;;;;;;;10.18;5.47;;;;;;;0.76;100.00;93636.13;5042512;28;20041;-62
2023/03/17 00:23:50;;;;;;;9.63;5.57;;;;;;;0.63;100.00;93637.47;5032564;28;20558;-61
2023/03/17 00:26:19;;;;;;;9.60;5.23;;;;;;;0.69;100.00;93636.00;5031942;28;20494;-62
2023/03/17 00:28:46;;;;;;;10.55;5.13;;;;;;;0.65;100.00;93635.94;5031330;28;20033;-61
2023/03/17 00:31:19;;;;;;;11.10;5.47;;;;;;;0.73;100.00;93639.56;5029670;28;20047;-61
2023/03/17 00:33:49;;;;;;;9.57;5.45;;;;;;;0.71;100.00;93637.22;5031345;28;20048;-64
2023/03/17 00:36:18;;;;;;;11.63;5.90;;;;;;;0.63;100.00;93638.22;5022925;28;20155;-62
2023/03/17 00:38:46;;;;;;;10.43;5.80;;;;;;;0.47;100.00;93632.16;5013566;28;20052;-61
2023/03/17 00:41:13;;;;;;;11.63;5.80;;;;;;;0.56;100.00;93625.38;5027236;28;20359;-62
2023/03/17 00:43:40;;;;;;;10.02;5.68;;;;;;;0.62;100.00;93617.75;5031207;28;20056;-63
2023/03/17 00:46:15;;;;;;;9.65;5.57;;;;;;;0.67;100.00;93620.16;5030835;28;20046;-61
2023/03/17 00:48:44;;;;;;;10.65;5.72;;;;;;;0.64;100.00;93610.06;5031338;28;20463;-61
2023/03/17 00:51:11;;;;;;;10.13;4.97;;;;;;;0.63;100.00;93603.13;5022417;28;20049;-61
2023/03/17 00:53:38;;;;;;;10.23;5.20;;;;;;;0.54;100.00;93592.56;5030944;28;20397;-61
2023/03/17 00:56:13;;;;;;;9.07;5.38;;;;;;;0.44;100.00;93592.38;5030378;28;20051;-62
2023/03/17 00:58:40;;;;;;;10.32;5.40;;;;;;;0.41;100.00;93587.69;5030879;28;20099;-64
2023/03/17 01:01:08;;;;;;;11.10;5.60;;;;;;;0.34;100.00;93582.94;5030186;28;20119;-63
2023/03/17 01:03:36;;;;;;;9.57;5.93;;;;;;;0.18;100.00;93580.34;5031035;28;20057;-63
2023/03/17 01:06:05;;;;;;;12.95;6.80;;;;;;;0.20;100.00;93591.56;5030415;28;20487;-62
2023/03/17 01:08:32;;;;;;;29.33;15.85;;;;;;;0.30;100.00;93592.88;5030882;28;20045;-63
2023/03/17 01:10:59;;;;;;;12.05;6.88;;;;;;;0.21;100.00;93590.44;5030175;28;20045;-62
2023/03/17 01:13:26;;;;;;;11.45;6.30;;;;;;;0.17;100.00;93597.69;5030461;28;20114;-61
2023/03/17 01:15:55;;;;;;;11.60;6.33;;;;;;;0.12;100.00;93603.34;5030339;28;20041;-62
2023/03/17 01:18:22;;;;;;;12.50;5.70;;;;;;;0.14;100.00;93606.47;5043859;28;20483;-61
2023/03/17 01:20:50;;;;;;;12.75;5.53;;;;;;;0.08;100.00;93599.81;5028947;28;20437;-63
2023/03/17 01:23:17;;;;;;;11.30;6.00;;;;;;;0.16;100.00;93596.91;5030339;28;20049;-63
2023/03/17 01:25:44;;;;;;;12.15;6.15;;;;;;;0.29;100.00;93594.03;5030678;28;20041;-63
2023/03/17 01:28:16;;;;;;;8.70;5.17;;;;;;;0.37;100.00;93588.41;5030031;28;20402;-62
2023/03/17 01:30:44;;;;;;;8.93;4.95;;;;;;;0.44;100.00;93593.13;5030033;28;20469;-61
2023/03/17 01:33:12;;;;;;;10.20;5.45;;;;;;;0.28;100.00;93578.97;5029788;28;20098;-61
2023/03/17 01:35:40;;;;;;;11.75;6.13;;;;;;;0.29;100.00;93569.75;5026729;28;20423;-64
2023/03/17 01:38:07;;;;;;;29.85;14.38;;;;;;;0.37;100.00;93566.03;5010248;28;20054;-61
2023/03/17 01:40:41;;;;;;;14.83;7.87;;;;;;;0.37;100.00;93566.03;5020964;28;20214;-61
2023/03/17 01:43:07;;;;;;;12.10;5.75;;;;;;;0.32;100.00;93567.13;5029444;28;20486;-61
2023/03/17 01:46:11;;;;;;;11.13;5.45;;;;;;;0.44;100.00;93559.97;5030014;28;20483;-61
2023/03/17 01:48:59;;;;;;;10.63;5.63;;;;;;;0.49;100.00;93548.88;5020112;28;20072;-64
2023/03/17 01:51:51;;;;;;;9.48;5.63;;;;;;;0.47;100.00;93549.25;5028849;28;20037;-62
2023/03/17 01:54:29;;;;;;;11.00;5.77;;;;;;;0.52;100.00;93554.31;5029101;28;20914;-61
2023/03/17 01:57:12;;;;;;;10.05;5.55;;;;;;;0.44;100.00;93555.34;5029510;28;20041;-61
2023/03/17 01:59:45;;;;;;;10.32;5.50;;;;;;;0.33;100.00;93563.25;5028299;28;20045;-60
2023/03/17 02:02:17;;;;;;;10.32;6.00;;;;;;;0.04;100.00;93572.78;5029504;28;20037;-64
2023/03/17 02:04:44;;;;;;;11.82;5.80;;;;;;;-0.13;100.00;93560.50;5029128;28;20383;-62
2023/03/17 02:07:11;;;;;;;12.20;6.33;;;;;;;-0.16;100.00;93553.13;5029331;28;20059;-61
2023/03/17 02:09:38;;;;;;;13.25;5.43;;;;;;;-0.15;100.00;93559.31;5029842;28;20087;-61
2023/03/17 02:12:06;;;;;;;11.48;6.18;;;;;;;-0.01;100.00;93549.56;5029475;28;20409;-62
2023/03/17 02:14:33;;;;;;;9.88;5.82;;;;;;;0.12;100.00;93547.50;5029773;28;20048;-60
2023/03/17 02:17:00;;;;;;;11.38;6.43;;;;;;;0.15;100.00;93546.75;5029079;28;20052;-61
2023/03/17 02:19:27;;;;;;;12.40;6.37;;;;;;;0.33;100.00;93551.69;5029535;28;20041;-62
2023/03/17 02:21:58;;;;;;;9.95;5.47;;;;;;;0.03;100.00;93549.63;5028697;28;20041;-62
2023/03/17 02:24:36;;;;;;;10.55;5.15;;;;;;;-0.21;100.00;93551.50;5029334;28;20182;-61
2023/03/17 02:27:13;;;;;;;11.50;5.72;;;;;;;-0.15;100.00;93557.38;5028787;28;20052;-60
2023/03/17 02:29:41;;;;;;;11.18;5.90;;;;;;;-0.06;100.00;93546.34;5029026;28;20123;-61
2023/03/17 02:32:08;;;;;;;10.63;5.53;;;;;;;0.06;100.00;93545.41;5028441;28;20037;-61
2023/03/17 02:34:36;;;;;;;13.13;5.70;;;;;;;0.14;100.00;93544.41;5029008;28;20071;-64
2023/03/17 02:37:03;;;;;;;9.60;5.40;;;;;;;0.17;100.00;93544.47;5014594;28;20048;-61
2023/03/17 02:39:31;;;;;;;9.15;5.22;;;;;;;0.13;100.00;93535.53;5012041;28;20046;-61
2023/03/17 02:41:58;;;;;;;10.80;5.45;;;;;;;0.05;100.00;93535.78;5024683;28;20041;-60
2023/03/17 02:44:25;;;;;;;9.47;5.57;;;;;;;0.05;100.00;93531.16;5028921;28;20441;-61
2023/03/17 02:46:52;;;;;;;9.75;4.78;;;;;;;0.12;100.00;93538.59;5028539;28;20103;-60
2023/03/17 02:49:19;;;;;;;10.00;5.03;;;;;;;0.16;100.00;93539.44;5028843;28;20040;-60
2023/03/17 02:51:46;;;;;;;13.20;7.28;;;;;;;-0.01;100.00;93540.69;5028845;28;20034;-61
2023/03/17 02:54:13;;;;;;;10.23;5.47;;;;;;;0.11;100.00;93542.44;5027974;28;20685;-62
2023/03/17 02:56:40;;;;;;;10.53;5.20;;;;;;;-0.18;100.00;93551.91;5028756;28;20121;-60
2023/03/17 02:59:08;;;;;;;10.82;5.72;;;;;;;-0.18;100.00;93539.22;5028121;28;20667;-61
2023/03/17 03:01:34;;;;;;;9.85;5.20;;;;;;;-0.26;100.00;93541.00;5028696;28;20037;-63
2023/03/17 03:04:02;;;;;;;10.70;4.90;;;;;;;-0.24;100.00;93540.66;5027100;28;20041;-60
2023/03/17 03:06:30;;;;;;;10.38;5.70;;;;;;;-0.10;100.00;93550.91;5028858;28;20524;-60
2023/03/17 03:08:57;;;;;;;11.63;5.43;;;;;;;-0.04;100.00;93552.97;5015344;28;20044;-60
2023/03/17 03:11:24;;;;;;;10.32;5.40;;;;;;;0.03;100.00;93546.16;5028709;28;20045;-61
2023/03/17 03:13:51;;;;;;;9.65;5.18;;;;;;;0.05;100.00;93546.56;5026648;28;20261;-62
2023/03/17 03:16:17;;;;;;;9.85;5.25;;;;;;;0.12;100.00;93552.09;5028683;28;20044;-60
2023/03/17 03:18:44;;;;;;;11.57;5.90;;;;;;;0.23;100.00;93549.59;5028725;28;20037;-60
2023/03/17 03:21:11;;;;;;;10.13;5.80;;;;;;;0.32;100.00;93542.84;5028200;28;20044;-60
2023/03/17 03:23:37;;;;;;;10.48;6.05;;;;;;;0.39;100.00;93534.84;5028345;28;20106;-61
2023/03/17 03:26:04;;;;;;;15.77;8.30;;;;;;;0.27;100.00;93543.13;5028182;28;20046;-61
2023/03/17 03:28:31;;;;;;;14.10;8.30;;;;;;;0.33;100.00;93547.06;5028328;28;20052;-63
2023/03/17 03:30:58;;;;;;;16.40;9.20;;;;;;;0.32;100.00;93545.53;5028174;28;20501;-62
2023/03/17 03:33:25;;;;;;;15.10;8.43;;;;;;;0.39;100.00;93545.63;5028242;28;20045;-60
2023/03/17 03:35:51;;;;;;;16.95;8.60;;;;;;;0.48;100.00;93539.97;5027892;28;20230;-61
2023/03/17 03:38:18;;;;;;;20.48;10.98;;;;;;;0.49;100.00;93538.09;5028144;28;20091;-60
2023/03/17 03:40:45;;;;;;;14.93;8.52;;;;;;;0.41;100.00;93537.19;5028432;28;20044;-62
2023/03/17 03:43:12;;;;;;;14.45;8.15;;;;;;;0.43;100.00;93534.13;5028245;28;20045;-61
2023/03/17 03:45:50;;;;;;;15.47;8.10;;;;;;;0.44;100.00;93541.84;5028105;28;20038;-60
2023/03/17 03:48:17;;;;;;;15.98;7.65;;;;;;;0.47;100.00;93540.38;5028539;28;20083;-60
2023/03/17 03:50:44;;;;;;;14.38;7.75;;;;;;;0.47;100.00;93541.13;5028544;28;20095;-61
2023/03/17 03:53:11;;;;;;;12.50;7.70;;;;;;;0.30;100.00;93528.13;5026388;28;20108;-61
2023/03/17 03:55:38;;;;;;;12.93;6.88;;;;;;;0.22;100.00;93534.53;5028246;28;20488;-62
2023/03/17 03:58:05;;;;;;;13.17;7.23;;;;;;;0.19;100.00;93538.72;5027699;28;20046;-60
2023/03/17 04:00:32;;;;;;;12.60;7.35;;;;;;;0.18;100.00;93545.25;5028614;28;20648;-62
2023/03/17 04:03:00;;;;;;;10.73;6.05;;;;;;;-0.09;100.00;93544.38;5028120;28;20045;-60
2023/03/17 04:05:27;;;;;;;9.93;5.20;;;;;;;-0.22;100.00;93544.53;5028216;28;20464;-61
2023/03/17 04:07:53;;;;;;;9.77;5.50;;;;;;;-0.38;100.00;93538.47;5027659;28;20068;-61
2023/03/17 04:10:20;;;;;;;12.43;6.17;;;;;;;-0.22;100.00;93533.00;5028253;28;20041;-62
2023/03/17 04:12:47;;;;;;;11.65;6.03;;;;;;;-0.12;100.00;93545.91;5028122;28;20054;-61
2023/03/17 04:15:15;;;;;;;10.65;5.50;;;;;;;-0.04;100.00;93530.59;5025893;28;20833;-63
2023/03/17 04:17:43;;;;;;;10.13;5.28;;;;;;;-0.06;100.00;93527.47;5027962;28;20045;-63
2023/03/17 04:20:11;;;;;;;11.38;5.40;;;;;;;-0.01;100.00;93525.28;5027669;28;20052;-63
2023/03/17 04:22:40;;;;;;;8.90;5.20;;;;;;;-0.03;100.00;93527.56;5028023;28;20398;-61
2023/03/17 04:25:09;;;;;;;8.25;4.90;;;;;;;-0.18;100.00;93531.13;5019824;28;20065;-61
2023/03/17 04:27:36;;;;;;;9.63;5.38;;;;;;;-0.10;100.00;93523.94;5011648;28;20522;-60
2023/03/17 04:30:04;;;;;;;9.43;4.93;;;;;;;-0.16;100.00;93514.56;5029713;28;20045;-63
2023/03/17 04:32:31;;;;;;;10.90;5.35;;;;;;;-0.23;100.00;93528.72;5031702;28;20397;-60
2023/03/17 04:34:57;;;;;;;8.67;4.97;;;;;;;-0.29;100.00;93530.13;5029403;28;20254;-60
2023/03/17 04:37:25;;;;;;;10.43;5.57;;;;;;;-0.34;100.00;93533.13;5031177;28;20440;-61
2023/03/17 04:39:52;;;;;;;10.88;5.20;;;;;;;-0.31;100.00;93524.31;5030733;28;20068;-61
2023/03/17 04:42:19;;;;;;;10.52;6.32;;;;;;;-0.24;100.00;93524.47;5031353;28;20041;-62
2023/03/17 04:44:45;;;;;;;10.98;5.70;;;;;;;-0.22;100.00;93522.97;5031244;28;20046;-61
2023/03/17 04:47:12;;;;;;;9.17;5.17;;;;;;;-0.28;100.00;93520.91;5031208;28;20448;-60
2023/03/17 04:49:39;;;;;;;11.10;5.65;;;;;;;-0.49;100.00;93527.44;5031060;28;20091;-61
2023/03/17 04:52:06;;;;;;;11.40;5.75;;;;;;;-0.49;100.00;93530.13;5030451;28;20284;-61
2023/03/17 04:54:32;;;;;;;16.77;7.00;;;;;;;-0.46;100.00;93521.34;5031150;28;20041;-61
2023/03/17 04:56:59;;;;;;;12.10;6.28;;;;;;;-0.44;100.00;93521.78;5029529;28;20045;-62
2023/03/17 04:59:26;;;;;;;15.10;7.23;;;;;;;-0.62;100.00;93513.34;5030999;28;20041;-61
2023/03/17 05:01:53;;;;;;;15.00;7.43;;;;;;;-0.55;100.00;93511.91;5030238;28;20038;-60
2023/03/17 05:04:19;;;;;;;11.50;7.07;;;;;;;-0.48;100.00;93509.38;5030901;28;20055;-62
2023/03/17 05:06:57;;;;;;;14.40;6.40;;;;;;;-0.43;100.00;93509.84;5030054;28;20049;-60
2023/03/17 05:09:25;;;;;;;10.13;6.00;;;;;;;-0.51;100.00;93513.53;5030948;28;20403;-62
2023/03/17 05:11:52;;;;;;;11.10;6.20;;;;;;;-0.54;100.00;93516.16;5028954;28;20055;-63
2023/03/17 05:14:19;;;;;;;10.98;5.90;;;;;;;-0.57;100.00;93512.28;5030577;28;20041;-63
2023/03/17 05:16:47;;;;;;;9.88;5.35;;;;;;;-0.73;100.00;93512.34;5029270;28;20487;-62
2023/03/17 05:19:14;;;;;;;11.20;6.32;;;;;;;-0.71;100.00;93518.16;5029701;28;20831;-62
2023/03/17 05:21:42;;;;;;;10.88;6.60;;;;;;;-0.82;100.00;93520.63;5030704;28;20091;-60
2023/03/17 05:24:09;;;;;;;10.47;6.20;;;;;;;-0.95;100.00;93521.88;5029133;28;20054;-61
2023/03/17 05:26:36;;;;;;;10.00;5.10;;;;;;;-0.85;100.00;93517.84;5012650;28;20046;-60
2023/03/17 05:29:03;;;;;;;10.40;5.93;;;;;;;-0.92;100.00;93517.72;5020392;28;20041;-62
2023/03/17 05:31:30;;;;;;;12.27;6.28;;;;;;;-0.79;100.00;93516.44;5030467;28;20494;-62
2023/03/17 05:33:57;;;;;;;13.70;7.07;;;;;;;-0.76;100.00;93520.38;5029459;28;20178;-63
2023/03/17 05:36:24;;;;;;;11.87;6.40;;;;;;;-0.79;100.00;93523.75;5029732;28;20620;-60
2023/03/17 05:38:51;;;;;;;15.00;6.57;;;;;;;-0.71;100.00;93526.22;5027337;28;20094;-60
2023/03/17 05:41:18;;;;;;;11.93;6.47;;;;;;;-0.64;100.00;93520.22;5029944;28;20048;-61
2023/03/17 05:43:45;;;;;;;11.15;5.85;;;;;;;-0.60;100.00;93526.47;5029978;28;20049;-62
2023/03/17 05:46:12;;;;;;;11.07;6.32;;;;;;;-0.66;100.00;93528.66;5029223;28;20056;-63
2023/03/17 05:48:39;;;;;;;12.27;6.37;;;;;;;-0.55;100.00;93530.78;5030306;28;20402;-62
2023/03/17 05:51:06;;;;;;;12.82;6.65;;;;;;;-0.50;100.00;93523.19;5029274;28;20083;-61
2023/03/17 05:53:34;;;;;;;12.02;6.47;;;;;;;-0.40;100.00;93521.84;5029768;28;20049;-61
2023/03/17 05:56:01;;;;;;;10.48;5.82;;;;;;;-0.32;100.00;93523.56;5029036;28;20090;-61
2023/03/17 05:58:28;;;;;;;10.93;6.22;;;;;;;-0.27;100.00;93527.88;5029267;28;20048;-62
2023/03/17 06:00:55;;;;;;;13.53;6.73;;;;;;;-0.41;100.00;93523.75;5027754;28;20042;-61
2023/03/17 06:03:22;;;;;;;12.50;6.30;;;;;;;-0.47;100.00;93533.25;5029501;28;20041;-61
2023/03/17 06:05:49;;;;;;;14.60;6.40;;;;;;;-0.24;100.00;93522.56;5028843;28;20634;-61
2023/03/17 06:08:15;;;;;;;16.17;6.38;;;;;;;-0.16;100.00;93528.88;5028131;28;20397;-61
2023/03/17 06:10:42;;;;;;;13.68;6.20;;;;;;;0.01;100.00;93524.16;5029512;28;20041;-61
2023/03/17 06:13:10;;;;;;;10.80;5.60;;;;;;;-0.02;100.00;93523.72;5040666;28;20040;-61
2023/03/17 06:15:37;;;;;;;11.75;6.18;;;;;;;-0.19;100.00;93524.16;5030549;28;20045;-61
2023/03/17 06:18:04;;;;;;;19.15;10.95;;;;;;;-0.34;100.00;93528.53;5028839;28;20049;-61
2023/03/17 06:20:32;;;;;;;32.00;17.27;;;;;;;-0.35;100.00;93528.88;5029556;28;20041;-62
2023/03/17 06:22:59;;;;;;;34.95;20.88;;;;;;;-0.24;100.00;93524.47;5027637;28;20045;-62
2023/03/17 06:25:32;;;;;;;37.13;22.27;;;;;;;-0.19;100.00;93532.25;5029145;28;20045;-64
2023/03/17 06:28:01;;;;;;;23.45;13.65;;;;;;;0.12;100.00;93533.19;5028253;28;20045;-64
2023/03/17 06:30:30;;;;;;;18.33;9.75;;;;;;;0.11;100.00;93523.56;5028612;28;20041;-65
2023/03/17 06:32:57;;;;;;;17.92;10.48;;;;;;;0.14;100.00;93528.22;5027508;28;20071;-62
2023/03/17 06:35:24;;;;;;;14.40;9.38;;;;;;;0.49;100.00;93528.06;5036917;28;20069;-64
2023/03/17 06:37:51;;;;;;;15.80;7.10;;;;;;;0.83;100.00;93532.84;5033699;28;20504;-64
2023/03/17 06:40:17;;;;;;;12.60;7.05;;;;;;;1.13;100.00;93532.88;5029077;28;20145;-65
2023/03/17 06:42:44;;;;;;;14.95;6.80;;;;;;;1.09;100.00;93527.44;5029157;28;20063;-64
2023/03/17 06:45:12;;;;;;;17.38;7.15;;;;;;;1.39;100.00;93532.09;5015601;28;20064;-61
2023/03/17 06:47:38;;;;;;;15.45;6.90;;;;;;;1.57;100.00;93533.09;5028903;28;20045;-65
2023/03/17 06:50:11;;;;;;;11.13;6.63;;;;;;;1.57;100.00;93526.88;5027689;28;20053;-64
2023/03/17 06:52:38;;;;;;;15.23;6.40;;;;;;;1.88;100.00;93536.53;5028816;28;20130;-62
2023/03/17 06:55:06;;;;;;;10.88;5.85;;;;;;;1.98;100.00;93533.16;5028180;28;20046;-65
2023/03/17 06:57:33;;;;;;;10.60;6.07;;;;;;;2.32;100.00;93530.41;5028718;28;20103;-65
2023/03/17 07:00:00;;;;;;;11.18;5.60;;;;;;;2.45;100.00;93530.91;5026978;28;20064;-64
2023/03/17 07:02:26;;;;;;;11.30;5.10;;;;;;;2.82;100.00;93537.41;5010648;28;20076;-66
2023/03/17 07:04:53;;;;;;;10.55;6.03;;;;;;;2.90;100.00;93530.91;5015736;28;20046;-64
2023/03/17 07:07:20;;;;;;;15.32;6.20;;;;;;;3.24;100.00;93533.44;5028240;28;20067;-64
2023/03/17 07:09:47;;;;;;;10.48;6.00;;;;;;;3.37;100.00;93532.75;5027890;28;20461;-64
2023/03/17 07:12:14;;;;;;;13.32;6.38;;;;;;;3.75;100.00;93530.63;5025959;28;20413;-64
2023/03/17 07:14:41;;;;;;;11.37;6.60;;;;;;;3.70;100.00;93533.72;5027859;28;20045;-64
2023/03/17 07:17:13;;;;;;;11.98;6.20;;;;;;;4.21;100.00;93531.94;5027452;28;20053;-63
2023/03/17 07:19:41;;;;;;;10.52;5.80;;;;;;;4.44;100.00;93530.81;5027535;28;20429;-64
2023/03/17 07:22:10;;;;;;;10.35;6.05;;;;;;;4.02;100.00;93532.25;5038959;28;20055;-64
2023/03/17 07:24:38;;;;;;;11.82;6.68;;;;;;;4.29;100.00;93519.94;5014607;28;20049;-64
2023/03/17 07:27:05;;;;;;;12.70;6.73;;;;;;;5.04;100.00;93521.91;5027261;28;20128;-66
2023/03/17 07:29:32;;;;;;;12.38;6.35;;;;;;;5.33;100.00;93521.88;5026121;28;20049;-66
2023/03/17 07:32:00;;;;;;;11.55;6.53;;;;;;;5.46;100.00;93525.75;5027451;28;20033;-64
2023/03/17 07:34:27;;;;;;;12.63;6.82;;;;;;;5.72;100.00;93526.47;5027723;28;20106;-65
2023/03/17 07:36:54;;;;;;;11.40;5.97;;;;;;;6.32;92.41;93522.72;5027297;28;20482;-64
2023/03/17 07:39:21;;;;;;;13.23;5.90;;;;;;;7.16;85.42;93519.03;5027785;28;20045;-64
2023/03/17 07:41:53;;;;;;;17.40;6.90;;;;;;;7.66;78.50;93517.75;5027936;28;20037;-64
2023/03/17 07:44:21;;;;;;;12.73;7.55;;;;;;;8.40;74.38;93514.53;5026750;28;21469;-67
2023/03/17 07:46:49;;;;;;;11.02;6.47;;;;;;;8.10;71.89;93520.78;5026385;28;20049;-66
2023/03/17 07:49:16;;;;;;;16.02;6.60;;;;;;;8.50;71.59;93516.38;5026767;28;20778;-67
2023/03/17 07:51:46;;;;;;;18.10;6.43;;;;;;;8.62;72.21;93522.47;5027884;28;20041;-65
2023/03/17 07:54:14;;;;;;;13.40;7.07;;;;;;;8.89;67.77;93525.94;5026833;28;20445;-70
2023/03/17 07:56:41;;;;;;;12.25;6.90;;;;;;;8.87;67.59;93519.34;5012015;28;20052;-65
2023/03/17 07:59:09;;;;;;;14.93;7.00;;;;;;;10.12;65.49;93516.38;5021072;28;20128;-64
2023/03/17 08:01:37;;;;;;;11.40;6.60;;;;;;;11.63;57.25;93510.25;5028891;28;20482;-65
2023/03/17 08:04:06;;;;;;;11.70;6.43;;;;;;;12.34;54.32;93513.09;5031060;28;20052;-65
2023/03/17 08:06:33;;;;;;;11.43;6.35;;;;;;;12.15;51.82;93506.53;5031201;28;20042;-66
2023/03/17 08:08:59;;;;;;;10.52;5.78;;;;;;;10.23;56.25;93502.47;5030965;28;20072;-65
2023/03/17 08:11:26;;;;;;;12.95;6.85;;;;;;;10.44;57.06;93517.72;5031284;28;20444;-67
2023/03/17 08:13:55;;;;;;;10.23;6.68;;;;;;;11.13;55.50;93510.28;5030418;28;20279;-68
2023/03/17 08:16:21;;;;;;;10.50;6.63;;;;;;;11.46;53.89;93509.50;5040936;28;20040;-68
2023/03/17 08:18:48;;;;;;;18.20;6.70;;;;;;;11.90;55.17;93509.97;5034219;28;20106;-62
2023/03/17 08:21:15;;;;;;;10.00;6.38;;;;;;;14.34;49.01;93502.34;5030866;28;20048;-65
2023/03/17 08:23:42;;;;;;;11.38;6.15;;;;;;;13.54;48.28;93498.78;5029409;28;20045;-64
2023/03/17 08:26:09;;;;;;;11.30;6.35;;;;;;;14.31;46.09;93503.25;5030507;28;20083;-68
2023/03/17 08:28:36;;;;;;;9.60;5.93;;;;;;;16.04;43.07;93494.53;5030845;28;20045;-65
2023/03/17 08:31:21;;;;;;;12.27;6.03;;;;;;;16.62;39.52;93499.09;5030324;28;20243;-68
2023/03/17 08:33:51;;;;;;;8.35;5.35;;;;;;;16.80;39.70;93487.16;5030609;28;20045;-66
2023/03/17 08:36:19;;;;;;;10.65;5.38;;;;;;;16.54;38.84;93495.09;5029991;28;20143;-64
2023/03/17 08:38:47;;;;;;;11.00;6.63;;;;;;;15.91;39.15;93489.13;5030548;28;20041;-65
2023/03/17 08:41:17;;;;;;;21.40;14.67;;;;;;;15.72;40.02;93491.91;5030311;28;20037;-66
2023/03/17 08:43:45;;;;;;;11.15;6.22;;;;;;;14.63;39.98;93495.78;5043863;28;20452;-68
2023/03/17 08:46:13;;;;;;;10.15;5.75;;;;;;;15.15;40.60;93494.16;5030423;28;20045;-66
2023/03/17 08:48:40;;;;;;;8.82;6.00;;;;;;;16.23;36.98;93479.44;5030307;28;20375;-65
2023/03/17 08:51:07;;;;;;;7.93;5.18;;;;;;;15.97;37.54;93474.22;5028971;28;20052;-65
2023/03/17 08:53:35;;;;;;;7.77;5.27;;;;;;;15.30;37.46;93477.81;5030527;28;20552;-65
2023/03/17 08:56:03;;;;;;;8.75;4.90;;;;;;;16.82;36.29;93470.91;5042987;28;20038;-65
2023/03/17 08:58:30;;;;;;;8.48;5.00;;;;;;;18.23;33.54;93467.59;5030438;28;20052;-65
2023/03/17 09:00:59;;;;;;;7.78;5.25;;;;;;;19.13;32.80;93474.75;5029772;28;20410;-68
2023/03/17 09:03:26;;;;;;;8.93;5.25;;;;;;;19.56;31.29;93461.97;5016898;28;20071;-65
2023/03/17 09:05:53;;;;;;;10.33;5.67;;;;;;;18.90;31.04;93468.06;5014878;28;20046;-65
2023/03/17 09:08:20;;;;;;;10.48;5.80;;;;;;;18.47;31.15;93462.00;5030493;28;20087;-66
2023/03/17 09:10:48;;;;;;;10.85;5.85;;;;;;;17.72;33.14;93469.38;5028208;28;20094;-65
2023/03/17 09:13:15;;;;;;;7.75;4.95;;;;;;;17.50;32.61;93453.78;5029215;28;20747;-64
2023/03/17 09:15:41;;;;;;;8.98;5.55;;;;;;;17.76;33.23;93464.41;5029830;28;20037;-64
2023/03/17 09:18:09;;;;;;;7.47;4.87;;;;;;;16.90;34.09;93454.69;5029740;28;20045;-64
2023/03/17 09:20:36;;;;;;;8.20;5.03;;;;;;;15.83;36.36;93460.22;5029628;28;20056;-66
2023/03/17 09:23:07;;;;;;;7.25;5.10;;;;;;;17.33;34.73;93463.75;5028571;28;20079;-65
2023/03/17 09:25:36;;;;;;;8.02;4.70;;;;;;;18.48;32.95;93455.19;5029926;28;20045;-64
2023/03/17 09:28:04;;;;;;;10.48;4.40;;;;;;;18.77;32.06;93449.66;5029290;28;20060;-64
2023/03/17 09:30:31;;;;;;;8.60;4.37;;;;;;;19.09;30.18;93458.25;5029622;28;20044;-66
2023/03/17 09:32:59;;;;;;;6.93;4.55;;;;;;;20.47;29.37;93451.94;5029197;28;20045;-65
2023/03/17 09:35:27;;;;;;;6.35;4.38;;;;;;;21.76;27.48;93448.66;5028288;28;20041;-64
2023/03/17 09:37:54;;;;;;;8.27;4.05;;;;;;;21.80;27.70;93455.53;5026263;28;20045;-67
2023/03/17 09:40:30;;;;;;;7.60;4.35;;;;;;;23.12;25.54;93451.34;5020021;28;20041;-64
2023/03/17 09:43:18;;;;;;;5.87;3.80;;;;;;;20.90;27.37;93452.09;5028879;28;20037;-66
2023/03/17 09:45:45;;;;;;;6.88;3.92;;;;;;;20.58;28.10;93457.59;5029418;28;20045;-64
2023/03/17 09:48:23;;;;;;;5.60;4.05;;;;;;;21.27;27.88;93442.97;5028822;28;20038;-66
2023/03/17 09:51:06;;;;;;;6.07;3.97;;;;;;;20.30;28.50;93455.31;5028723;28;20045;-64
2023/03/17 09:53:35;;;;;;;5.30;3.72;;;;;;;21.76;26.63;93443.81;5018467;28;20510;-67
2023/03/17 09:56:10;;;;;;;5.87;3.90;;;;;;;21.67;26.95;93436.44;5028643;28;20057;-66
2023/03/17 09:58:40;;;;;;;5.93;3.40;;;;;;;23.03;26.36;93437.59;5029473;28;20046;-64
2023/03/17 10:01:09;;;;;;;6.32;3.60;;;;;;;22.38;25.20;93432.16;5028726;28;20338;-68
2023/03/17 10:03:36;;;;;;;8.13;3.92;;;;;;;22.60;25.71;93446.19;5029288;28;20049;-65
2023/03/17 10:06:23;;;;;;;5.43;3.30;;;;;;;22.66;25.25;93432.97;5027063;28;20562;-66
2023/03/17 10:08:59;;;;;;;8.87;3.40;;;;;;;20.13;27.75;93430.03;5028451;28;20037;-65
2023/03/17 10:11:37;;;;;;;7.13;3.40;;;;;;;19.86;28.47;93438.84;5029187;28;20042;-65
2023/03/17 10:14:23;;;;;;;5.22;3.50;;;;;;;20.22;27.87;93437.50;5028518;28;20053;-65
2023/03/17 10:17:02;;;;;;;4.60;3.20;;;;;;;20.91;27.22;93432.09;5028302;28;20099;-64
2023/03/17 10:19:34;;;;;;;5.90;3.22;;;;;;;19.36;29.35;93440.44;5029164;28;20051;-64
2023/03/17 10:22:14;;;;;;;5.73;3.63;;;;;;;19.68;29.36;93432.28;5028272;28;20053;-65
2023/03/17 10:24:47;;;;;;;6.03;3.33;;;;;;;18.89;29.82;93433.91;5027950;28;20041;-67
2023/03/17 10:27:16;;;;;;;5.50;3.53;;;;;;;18.29;31.25;93435.16;5014826;28;20052;-67
2023/03/17 10:29:43;;;;;;;6.28;3.42;;;;;;;18.85;31.16;93436.13;5036523;28;20102;-67
2023/03/17 10:32:13;;;;;;;6.95;3.35;;;;;;;18.80;30.58;93433.28;5027966;28;20410;-66
2023/03/17 10:34:41;;;;;;;5.93;3.37;;;;;;;19.07;30.95;93432.16;5028710;28;20430;-65
2023/03/17 10:37:13;;;;;;;5.00;3.25;;;;;;;18.96;30.83;93430.00;5028106;28;20041;-64
2023/03/17 10:39:46;;;;;;;4.90;3.20;;;;;;;17.77;32.97;93432.66;5028379;28;20046;-64
2023/03/17 10:42:20;;;;;;;6.43;3.40;;;;;;;18.40;32.67;93434.59;5028354;28;20037;-64
2023/03/17 10:45:28;;;;;;;7.03;3.20;;;;;;;18.25;33.07;93431.78;5028485;28;20044;-63
2023/03/17 10:47:57;;;;;;;5.00;3.23;;;;;;;18.78;32.46;93425.38;4965473;28;20133;-64
2023/03/17 10:50:32;;;;;;;6.45;3.47;;;;;;;18.23;32.47;93423.97;5006556;28;20060;-64
2023/03/17 10:53:09;;;;;;;5.22;3.03;;;;;;;19.44;31.76;93435.25;5027709;28;20052;-65
2023/03/17 10:55:36;;;;;;;7.60;3.45;;;;;;;21.64;29.19;93420.66;5027900;28;20041;-64
2023/03/17 10:58:06;;;;;;;5.18;3.30;;;;;;;20.34;29.32;93421.63;5027506;28;20095;-65
2023/03/17 11:00:37;;;;;;;6.23;3.40;;;;;;;19.81;30.51;93418.03;5028286;28;20110;-64
2023/03/17 11:03:18;;;;;;;5.00;3.38;;;;;;;20.89;28.73;93409.50;5014299;28;20050;-65
2023/03/17 11:06:12;;;;;;;5.25;3.10;;;;;;;21.27;27.83;93415.84;5011133;28;20087;-64
2023/03/17 11:08:41;;;;;;;5.00;2.97;;;;;;;21.76;27.54;93415.91;5027008;28;21103;-64
2023/03/17 11:11:21;;;;;;;6.35;3.22;;;;;;;23.37;26.42;93397.59;5028284;28;20049;-67
2023/03/17 11:13:48;;;;;;;5.30;3.00;;;;;;;22.69;26.27;93403.97;5028817;28;20042;-67
2023/03/17 11:16:22;;;;;;;4.78;2.95;;;;;;;21.93;26.48;93401.97;5026331;28;20143;-68
2023/03/17 11:18:56;;;;;;;5.40;3.00;;;;;;;23.47;25.73;93398.84;5028288;28;20041;-64
2023/03/17 11:21:29;;;;;;;7.88;2.90;;;;;;;23.86;24.79;93395.19;5028349;28;20046;-64
2023/03/17 11:24:08;;;;;;;5.38;3.15;;;;;;;23.30;25.05;93396.06;5028200;28;20050;-65
2023/03/17 11:26:52;;;;;;;5.40;2.90;;;;;;;21.81;25.42;93400.41;5028655;28;20048;-65
2023/03/17 11:29:33;;;;;;;6.93;3.05;;;;;;;21.19;26.80;93394.47;5026627;28;20067;-64
2023/03/17 11:32:18;;;;;;;4.55;3.45;;;;;;;21.45;26.17;93389.59;5026852;28;20037;-64
2023/03/17 11:35:09;;;;;;;5.93;3.00;;;;;;;20.64;28.08;93377.59;5016027;28;20033;-63
2023/03/17 11:38:14;;;;;;;5.38;2.97;;;;;;;20.70;27.56;93383.22;5031736;28;20695;-65